createdAt,value
2022-10-05T00:01:29.885Z,10.00
2022-10-05T00:04:29.149Z,10.00
2022-10-05T00:06:58.078Z,10.00
2022-10-05T00:09:25.251Z,10.00
2022-10-05T00:11:52.295Z,10.00
2022-10-05T00:14:31.663Z,10.00
2022-10-05T00:16:58.985Z,10.00
2022-10-05T00:19:33.681Z,10.00
2022-10-05T00:22:16.973Z,10.00
2022-10-05T00:24:50.229Z,10.10
2022-10-05T00:27:22.345Z,10.00
2022-10-05T00:34:08.922Z,10.00
2022-10-05T00:36:35.889Z,8.20
2022-10-05T00:39:03.429Z,9.90
2022-10-05T00:41:46.947Z,9.80
2022-10-05T00:44:34.895Z,9.70
2022-10-05T00:47:27.732Z,9.70
2022-10-05T00:50:06.689Z,9.60
2022-10-05T00:52:58.154Z,9.60
2022-10-05T00:55:40.742Z,9.50
2022-10-05T00:58:08.217Z,9.50
2022-10-05T01:00:47.489Z,9.50
2022-10-05T01:03:25.287Z,9.50
2022-10-05T01:06:01.332Z,9.50
2022-10-05T01:08:57.583Z,9.50
2022-10-05T01:11:34.371Z,9.60
2022-10-05T01:14:22.774Z,9.60
2022-10-05T01:17:30.522Z,9.60
2022-10-05T01:20:06.553Z,9.60
2022-10-05T01:22:56.848Z,9.60
2022-10-05T01:25:47.426Z,9.60
2022-10-05T01:28:28.179Z,9.70
2022-10-05T01:31:01.458Z,9.70
2022-10-05T01:33:55.341Z,9.70
2022-10-05T01:36:37.612Z,9.70
2022-10-05T01:39:14.270Z,9.70
2022-10-05T01:41:53.791Z,9.70
2022-10-05T01:44:31.171Z,9.70
2022-10-05T01:47:09.920Z,9.70
2022-10-05T01:49:45.382Z,9.70
2022-10-05T01:52:32.631Z,9.60
2022-10-05T01:55:47.092Z,9.70
2022-10-05T01:58:46.388Z,9.70
2022-10-05T02:01:19.546Z,9.80
2022-10-05T02:04:29.534Z,9.70
2022-10-05T02:07:07.046Z,9.70
2022-10-05T02:09:41.743Z,9.70
2022-10-05T02:12:18.006Z,9.70
2022-10-05T02:14:49.977Z,9.60
2022-10-05T02:17:26.169Z,9.70
2022-10-05T02:19:59.904Z,9.60
2022-10-05T02:22:53.023Z,9.60
2022-10-05T02:25:23.755Z,9.60
2022-10-05T02:28:02.497Z,9.60
2022-10-05T02:30:34.104Z,9.50
2022-10-05T02:33:10.330Z,9.50
2022-10-05T02:35:37.706Z,9.40
2022-10-05T02:38:22.855Z,9.40
2022-10-05T02:40:58.697Z,9.30
2022-10-05T02:43:45.530Z,9.20
2022-10-05T02:46:18.710Z,9.10
2022-10-05T02:48:57.922Z,9.10
2022-10-05T02:51:27.928Z,9.00
2022-10-05T02:54:02.112Z,8.90
2022-10-05T02:56:56.008Z,8.90
2022-10-05T02:59:31.819Z,8.80
2022-10-05T03:02:15.184Z,8.70
2022-10-05T03:05:00.269Z,8.70
2022-10-05T03:07:41.746Z,8.60
2022-10-05T03:10:15.317Z,8.50
2022-10-05T03:12:45.540Z,8.50
2022-10-05T03:15:27.988Z,8.40
2022-10-05T03:18:23.922Z,8.40
2022-10-05T03:21:10.234Z,8.30
2022-10-05T03:24:13.081Z,8.30
2022-10-05T03:27:02.981Z,8.30
2022-10-05T03:29:54.850Z,8.20
2022-10-05T03:32:53.074Z,8.20
2022-10-05T03:35:20.325Z,8.20
2022-10-05T03:38:00.432Z,8.10
2022-10-05T03:40:39.724Z,8.10
2022-10-05T03:43:38.472Z,8.00
2022-10-05T03:46:17.173Z,7.90
2022-10-05T03:49:00.983Z,7.90
2022-10-05T03:51:33.177Z,7.80
2022-10-05T03:54:36.588Z,7.80
2022-10-05T03:57:09.629Z,7.80
2022-10-05T04:00:00.570Z,7.70
2022-10-05T04:02:34.605Z,7.70
2022-10-05T04:05:10.785Z,7.70
2022-10-05T04:08:04.377Z,7.70
2022-10-05T04:10:43.608Z,7.70
2022-10-05T04:13:24.393Z,7.70
2022-10-05T04:15:58.942Z,7.70
2022-10-05T04:18:32.900Z,7.80
2022-10-05T04:21:08.985Z,7.70
2022-10-05T04:23:41.437Z,7.70
2022-10-05T04:26:17.023Z,7.70
2022-10-05T04:29:14.273Z,7.60
2022-10-05T04:32:03.514Z,7.60
2022-10-05T04:34:37.499Z,7.60
2022-10-05T04:37:10.131Z,7.60
2022-10-05T04:39:43.949Z,7.60
2022-10-05T04:42:33.546Z,7.50
2022-10-05T04:45:20.755Z,7.50
2022-10-05T04:48:09.046Z,7.50
2022-10-05T04:50:57.484Z,7.50
2022-10-05T04:53:46.042Z,7.50
2022-10-05T04:56:30.033Z,7.50
2022-10-05T04:59:09.771Z,7.60
2022-10-05T05:01:53.212Z,7.60
2022-10-05T05:04:40.142Z,7.50
2022-10-05T05:07:23.088Z,7.60
2022-10-05T05:10:08.992Z,7.60
2022-10-05T05:12:53.150Z,7.70
2022-10-05T05:15:43.562Z,7.70
2022-10-05T05:18:29.247Z,7.80
2022-10-05T05:21:17.070Z,7.70
2022-10-05T05:24:19.489Z,7.90
2022-10-05T05:27:24.333Z,7.80
2022-10-05T05:29:57.305Z,8.00
2022-10-05T05:32:30.983Z,8.00
2022-10-05T05:35:23.293Z,8.00
2022-10-05T05:38:24.118Z,8.00
2022-10-05T05:41:10.371Z,8.10
2022-10-05T05:44:01.233Z,8.20
2022-10-05T05:47:01.615Z,8.20
2022-10-05T05:49:40.340Z,8.30
2022-10-05T05:53:15.376Z,8.30
2022-10-05T05:56:00.673Z,8.40
2022-10-05T05:58:48.170Z,8.60
2022-10-05T06:01:37.694Z,8.70
2022-10-05T06:04:17.048Z,8.80
2022-10-05T06:06:50.035Z,8.90
2022-10-05T06:09:38.663Z,9.00
2022-10-05T06:12:24.393Z,9.00
2022-10-05T06:15:03.961Z,9.10
2022-10-05T06:17:40.508Z,9.20
2022-10-05T06:20:25.185Z,9.40
2022-10-05T06:22:54.729Z,9.50
2022-10-05T06:25:21.980Z,9.60
2022-10-05T06:28:13.863Z,9.70
2022-10-05T06:31:24.728Z,9.80
2022-10-05T06:34:14.672Z,9.80
2022-10-05T06:37:00.208Z,9.90
2022-10-05T06:40:00.781Z,10.00
2022-10-05T06:42:53.307Z,10.10
2022-10-05T06:45:56.770Z,10.20
2022-10-05T06:48:50.005Z,10.30
2022-10-05T06:51:42.399Z,10.40
2022-10-05T06:54:38.354Z,10.60
2022-10-05T06:57:11.028Z,10.70
2022-10-05T07:00:04.019Z,10.80
2022-10-05T07:02:49.860Z,10.90
2022-10-05T07:05:28.649Z,11.00
2022-10-05T07:08:00.289Z,11.10
2022-10-05T07:10:32.653Z,11.10
2022-10-05T07:13:21.534Z,11.20
2022-10-05T07:16:03.955Z,11.30
2022-10-05T07:19:00.225Z,11.40
2022-10-05T07:21:35.831Z,11.40
2022-10-05T07:24:33.133Z,11.40
2022-10-05T07:27:33.814Z,11.50
2022-10-05T07:30:13.037Z,11.60
2022-10-05T07:32:54.435Z,11.60
2022-10-05T07:35:51.831Z,11.80
2022-10-05T07:38:24.985Z,11.80
2022-10-05T07:41:12.156Z,11.90
2022-10-05T07:44:03.058Z,11.90
2022-10-05T07:46:40.992Z,11.90
2022-10-05T07:49:31.102Z,11.90
2022-10-05T07:52:09.736Z,11.90
2022-10-05T07:55:00.068Z,11.90
2022-10-05T07:57:44.177Z,12.00
2022-10-05T08:00:20.412Z,12.20
2022-10-05T08:02:53.780Z,12.20
2022-10-05T08:05:30.696Z,12.40
2022-10-05T08:08:14.387Z,12.50
2022-10-05T08:11:00.928Z,12.60
2022-10-05T08:13:27.873Z,12.70
2022-10-05T08:16:01.102Z,12.80
2022-10-05T08:18:46.603Z,13.00
2022-10-05T08:21:16.356Z,13.10
2022-10-05T08:24:03.322Z,13.30
2022-10-05T08:26:47.706Z,13.50
2022-10-05T08:29:40.078Z,13.70
2022-10-05T08:32:16.373Z,13.90
2022-10-05T08:34:55.677Z,14.10
2022-10-05T08:37:27.687Z,14.30
2022-10-05T08:40:26.000Z,14.40
2022-10-05T08:43:14.565Z,14.60
2022-10-05T08:46:14.605Z,14.80
2022-10-05T08:48:47.342Z,15.00
2022-10-05T08:51:42.525Z,15.20
2022-10-05T08:54:24.992Z,15.30
2022-10-05T08:57:41.647Z,15.50
2022-10-05T09:00:31.050Z,15.60
2022-10-05T09:03:08.120Z,15.80
2022-10-05T09:05:58.028Z,16.10
2022-10-05T09:09:03.407Z,16.30
2022-10-05T09:12:02.066Z,16.40
2022-10-05T09:14:56.590Z,16.60
2022-10-05T09:18:00.301Z,16.80
2022-10-05T09:20:36.031Z,17.00
2022-10-05T09:23:21.234Z,17.10
2022-10-05T09:25:55.022Z,17.20
2022-10-05T09:29:19.696Z,17.30
2022-10-05T09:31:55.658Z,17.40
2022-10-05T09:35:00.139Z,17.50
2022-10-05T09:38:08.565Z,17.60
2022-10-05T09:40:54.067Z,17.70
2022-10-05T09:43:40.277Z,17.90
2022-10-05T09:46:19.277Z,17.90
2022-10-05T09:49:07.978Z,18.00
2022-10-05T09:52:06.273Z,18.00
2022-10-05T09:54:48.471Z,18.10
2022-10-05T09:57:53.149Z,18.30
2022-10-05T10:00:38.787Z,18.40
2022-10-05T10:03:39.354Z,18.50
2022-10-05T10:06:23.008Z,18.50
2022-10-05T10:09:05.259Z,18.50
2022-10-05T10:12:04.220Z,18.70
2022-10-05T10:14:49.581Z,18.80
2022-10-05T10:17:45.873Z,19.00
2022-10-05T10:20:36.198Z,19.20
2022-10-05T10:23:10.544Z,19.40
2022-10-05T10:26:08.077Z,19.60
2022-10-05T10:28:53.398Z,19.60
2022-10-05T10:31:51.652Z,19.50
2022-10-05T10:34:41.728Z,19.50
2022-10-05T10:37:50.310Z,19.50
2022-10-05T10:40:39.423Z,19.50
2022-10-05T10:43:41.131Z,19.50
2022-10-05T10:46:35.157Z,19.60
2022-10-05T10:49:35.540Z,19.70
2022-10-05T10:52:05.542Z,19.80
2022-10-05T10:55:11.032Z,19.80
2022-10-05T10:58:02.611Z,19.90
2022-10-05T11:00:44.165Z,19.90
2022-10-05T11:03:29.473Z,19.90
2022-10-05T11:06:02.356Z,20.00
2022-10-05T11:09:15.576Z,20.00
2022-10-05T11:12:15.612Z,19.90
2022-10-05T11:14:45.478Z,19.90
2022-10-05T11:17:29.411Z,20.00
2022-10-05T11:24:38.945Z,20.20
2022-10-05T11:27:41.511Z,20.30
2022-10-05T11:30:26.824Z,20.40
2022-10-05T11:33:15.306Z,20.50
2022-10-05T11:35:54.520Z,20.70
2022-10-05T11:39:07.288Z,20.70
2022-10-05T11:41:41.679Z,20.80
2022-10-05T11:44:20.744Z,20.80
2022-10-05T11:46:53.496Z,20.90
2022-10-05T11:49:43.121Z,21.00
2022-10-05T11:52:26.697Z,21.10
2022-10-05T11:55:23.391Z,21.20
2022-10-05T11:58:13.227Z,21.40
2022-10-05T12:01:32.394Z,21.40
2022-10-05T12:04:08.678Z,21.50
2022-10-05T12:07:21.032Z,21.70
2022-10-05T12:10:17.330Z,21.80
2022-10-05T12:13:08.918Z,21.80
2022-10-05T12:15:51.271Z,21.80
2022-10-05T12:18:54.165Z,21.70
2022-10-05T12:21:35.595Z,21.70
2022-10-05T12:24:15.358Z,21.80
2022-10-05T12:26:45.226Z,21.90
2022-10-05T12:29:17.802Z,21.90
2022-10-05T12:32:17.228Z,22.10
2022-10-05T12:35:03.328Z,22.20
2022-10-05T12:37:52.226Z,22.30
2022-10-05T12:40:20.122Z,22.30
2022-10-05T12:43:09.096Z,22.30
2022-10-05T12:45:43.599Z,22.30
2022-10-05T12:48:47.288Z,22.30
2022-10-05T12:51:42.970Z,22.40
2022-10-05T12:54:24.749Z,22.50
2022-10-05T12:57:25.523Z,22.70
2022-10-05T12:59:57.327Z,22.80
2022-10-05T13:02:42.806Z,22.90
2022-10-05T13:05:09.677Z,22.90
2022-10-05T13:07:45.652Z,22.90
2022-10-05T13:10:50.983Z,22.90
2022-10-05T13:13:23.752Z,22.90
2022-10-05T13:16:18.020Z,22.90
2022-10-05T13:18:56.140Z,22.90
2022-10-05T13:21:49.653Z,22.80
2022-10-05T13:24:31.506Z,22.80
2022-10-05T13:27:24.809Z,22.80
2022-10-05T13:29:59.232Z,22.90
2022-10-05T13:32:40.437Z,22.90
2022-10-05T13:35:26.657Z,23.00
2022-10-05T13:38:12.106Z,23.00
2022-10-05T13:40:42.758Z,23.00
2022-10-05T13:43:30.725Z,23.10
2022-10-05T13:46:28.616Z,23.10
2022-10-05T13:49:19.250Z,23.10
2022-10-05T13:52:26.427Z,23.10
2022-10-05T13:55:17.113Z,23.10
2022-10-05T13:57:53.464Z,23.00
2022-10-05T14:00:26.915Z,23.00
2022-10-05T14:02:57.263Z,22.90
2022-10-05T14:05:27.163Z,22.90
2022-10-05T14:08:19.553Z,22.80
2022-10-05T14:10:47.896Z,22.80
2022-10-05T14:13:46.732Z,22.70
2022-10-05T14:16:13.810Z,22.60
2022-10-05T14:19:08.131Z,22.60
2022-10-05T14:22:02.806Z,22.60
2022-10-05T14:24:43.759Z,22.50
2022-10-05T14:28:04.856Z,22.50
2022-10-05T14:30:33.224Z,22.50
2022-10-05T14:33:06.233Z,22.50
2022-10-05T14:35:49.850Z,22.60
2022-10-05T14:38:31.581Z,22.50
2022-10-05T14:41:20.245Z,22.50
2022-10-05T14:44:27.548Z,22.40
2022-10-05T14:47:02.659Z,22.30
2022-10-05T14:49:33.239Z,22.30
2022-10-05T14:52:00.268Z,22.20
2022-10-05T14:54:46.986Z,22.10
2022-10-05T14:57:20.072Z,22.00
2022-10-05T15:00:09.066Z,21.90
2022-10-05T15:03:18.184Z,21.80
2022-10-05T15:05:55.297Z,21.80
2022-10-05T15:08:53.841Z,21.70
2022-10-05T15:11:42.642Z,21.70
2022-10-05T15:14:20.146Z,21.60
2022-10-05T15:16:51.761Z,21.50
2022-10-05T15:19:47.688Z,21.60
2022-10-05T15:22:48.951Z,21.60
2022-10-05T15:25:22.330Z,21.70
2022-10-05T15:28:19.627Z,21.70
2022-10-05T15:31:13.985Z,21.60
2022-10-05T15:33:50.703Z,21.60
2022-10-05T15:36:52.488Z,21.50
2022-10-05T15:39:48.572Z,21.40
2022-10-05T15:42:25.254Z,21.30
2022-10-05T15:45:17.162Z,21.30
2022-10-05T15:47:47.387Z,21.20
2022-10-05T15:50:28.462Z,21.20
2022-10-05T15:53:21.451Z,21.20
2022-10-05T15:56:08.194Z,21.10
2022-10-05T15:59:18.808Z,21.10
2022-10-05T16:02:04.544Z,21.00
2022-10-05T16:04:51.344Z,20.80
2022-10-05T16:07:45.916Z,20.70
2022-10-05T16:10:24.238Z,20.50
2022-10-05T16:13:35.779Z,20.30
2022-10-05T16:16:26.202Z,20.20
2022-10-05T16:19:26.870Z,20.00
2022-10-05T16:22:05.021Z,19.90
2022-10-05T16:25:06.353Z,19.70
2022-10-05T16:27:56.047Z,19.60
2022-10-05T16:30:23.317Z,19.40
2022-10-05T16:32:56.258Z,19.30
2022-10-05T16:35:44.450Z,19.20
2022-10-05T16:38:25.126Z,19.10
2022-10-05T16:40:52.291Z,18.90
2022-10-05T16:43:44.974Z,18.70
2022-10-05T16:46:27.910Z,18.60
2022-10-05T16:49:23.676Z,18.50
2022-10-05T16:51:56.995Z,18.30
2022-10-05T16:54:38.420Z,18.20
2022-10-05T16:57:27.204Z,18.00
2022-10-05T17:00:47.234Z,17.90
2022-10-05T17:03:24.707Z,17.80
2022-10-05T17:05:55.949Z,17.60
2022-10-05T17:09:11.965Z,17.50
2022-10-05T17:16:38.367Z,17.30
2022-10-05T17:19:26.543Z,17.10
2022-10-05T17:22:32.133Z,17.00
2022-10-05T17:25:24.424Z,16.80
2022-10-05T17:27:53.899Z,16.70
2022-10-05T17:30:53.970Z,16.60
2022-10-05T17:33:30.505Z,16.50
2022-10-05T17:36:04.797Z,16.40
2022-10-05T17:38:33.337Z,16.30
2022-10-05T17:42:13.347Z,16.20
2022-10-05T17:44:40.410Z,16.10
2022-10-05T17:47:11.468Z,16.00
2022-10-05T17:54:17.195Z,15.80
2022-10-05T17:56:47.213Z,15.70
2022-10-05T17:59:36.982Z,15.60
2022-10-05T18:02:13.041Z,15.60
2022-10-05T18:04:42.395Z,15.50
2022-10-05T18:07:19.697Z,15.40
2022-10-05T18:09:59.265Z,15.40
2022-10-05T18:12:41.694Z,15.30
2022-10-05T18:15:08.604Z,15.30
2022-10-05T18:18:20.688Z,15.20
2022-10-05T18:21:23.349Z,15.20
2022-10-05T18:23:59.267Z,15.10
2022-10-05T18:26:35.247Z,15.00
2022-10-05T18:29:48.783Z,15.00
2022-10-05T18:32:40.844Z,14.90
2022-10-05T18:35:16.313Z,14.80
2022-10-05T18:38:02.880Z,14.70
2022-10-05T18:40:48.672Z,14.70
2022-10-05T18:43:31.057Z,14.60
2022-10-05T18:46:10.017Z,14.50
2022-10-05T18:48:55.054Z,14.50
2022-10-05T18:51:31.816Z,14.40
2022-10-05T18:54:14.653Z,14.30
2022-10-05T18:56:47.131Z,14.20
2022-10-05T18:59:32.725Z,14.20
2022-10-05T19:06:24.452Z,14.00
2022-10-05T19:09:29.982Z,14.00
2022-10-05T19:12:14.373Z,13.80
2022-10-05T19:15:13.355Z,13.80
2022-10-05T19:18:11.886Z,13.70
2022-10-05T19:20:41.690Z,13.70
2022-10-05T19:23:27.615Z,13.60
2022-10-05T19:26:28.848Z,13.60
2022-10-05T19:29:06.290Z,13.50
2022-10-05T19:31:40.591Z,13.50
2022-10-05T19:34:26.560Z,13.40
2022-10-05T19:37:16.635Z,13.40
2022-10-05T19:39:58.801Z,13.40
2022-10-05T19:42:45.195Z,13.30
2022-10-05T19:45:21.030Z,13.30
2022-10-05T19:48:04.802Z,13.30
2022-10-05T19:50:38.466Z,13.30
2022-10-05T19:53:12.906Z,13.40
2022-10-05T19:56:31.810Z,13.40
2022-10-05T19:59:17.456Z,13.40
2022-10-05T20:01:52.123Z,13.40
2022-10-05T20:04:33.116Z,13.40
2022-10-05T20:07:02.336Z,13.30
2022-10-05T20:09:29.974Z,13.30
2022-10-05T20:11:57.022Z,13.30
2022-10-05T20:14:33.030Z,13.30
2022-10-05T20:17:47.797Z,13.30
2022-10-05T20:20:24.110Z,13.30
2022-10-05T20:22:51.133Z,13.30
2022-10-05T20:25:18.038Z,13.30
2022-10-05T20:27:52.108Z,13.30
2022-10-05T20:30:24.946Z,13.30
2022-10-05T20:32:57.657Z,13.30
2022-10-05T20:35:27.886Z,13.30
2022-10-05T20:37:59.442Z,13.30
2022-10-05T20:40:30.520Z,13.30
2022-10-05T20:42:58.577Z,13.40
2022-10-05T20:45:25.730Z,13.30
2022-10-05T20:47:52.789Z,13.30
2022-10-05T20:50:22.905Z,13.30
2022-10-05T20:52:49.963Z,13.30
2022-10-05T20:55:17.063Z,13.30
2022-10-05T20:57:56.728Z,13.30
2022-10-05T21:00:23.720Z,13.20
2022-10-05T21:02:50.715Z,13.20
2022-10-05T21:05:18.422Z,13.20
2022-10-05T21:07:45.438Z,13.20
2022-10-05T21:10:12.987Z,13.20
2022-10-05T21:12:40.051Z,13.10
2022-10-05T21:15:07.421Z,13.10
2022-10-05T21:17:34.852Z,13.10
2022-10-05T21:20:02.334Z,13.10
2022-10-05T21:22:29.882Z,13.00
2022-10-05T21:24:57.277Z,13.00
2022-10-05T21:27:25.232Z,13.00
2022-10-05T21:29:52.365Z,12.90
2022-10-05T21:32:19.671Z,12.90
2022-10-05T21:34:47.194Z,12.80
2022-10-05T21:37:35.524Z,12.80
2022-10-05T21:40:03.357Z,12.70
2022-10-05T21:42:33.267Z,12.60
2022-10-05T21:45:00.323Z,12.60
2022-10-05T21:47:27.375Z,12.60
2022-10-05T21:49:54.717Z,12.60
2022-10-05T21:52:22.098Z,12.40
2022-10-05T21:54:49.313Z,12.40
2022-10-05T21:57:16.504Z,12.40
2022-10-05T21:59:43.975Z,12.30
2022-10-05T22:02:10.969Z,12.30
2022-10-05T22:04:37.846Z,12.20
2022-10-05T22:07:19.138Z,12.20
2022-10-05T22:09:50.353Z,12.20
2022-10-05T22:12:20.025Z,12.10
2022-10-05T22:14:47.614Z,12.00
2022-10-05T22:17:26.858Z,12.00
2022-10-05T22:19:58.634Z,12.00
2022-10-05T22:22:27.242Z,11.90
2022-10-05T22:24:55.436Z,11.90
2022-10-05T22:27:24.296Z,11.90
2022-10-05T22:29:51.776Z,11.90
2022-10-05T22:32:18.726Z,12.00
2022-10-05T22:34:45.720Z,12.10
2022-10-05T22:37:13.815Z,12.10
2022-10-05T22:39:41.436Z,12.20
2022-10-05T22:42:09.008Z,12.20
2022-10-05T22:44:36.391Z,12.20
2022-10-05T22:47:04.056Z,12.20
2022-10-05T22:49:31.252Z,12.30
2022-10-05T22:51:58.248Z,12.30
2022-10-05T22:54:29.368Z,12.30
2022-10-05T22:56:57.072Z,12.40
2022-10-05T22:59:41.249Z,12.50
2022-10-05T23:02:08.284Z,12.50
2022-10-05T23:04:35.320Z,12.60
2022-10-05T23:07:03.005Z,12.70
2022-10-05T23:09:29.986Z,12.70
2022-10-05T23:11:57.140Z,12.80
2022-10-05T23:14:24.467Z,12.80
2022-10-05T23:16:51.851Z,12.90
2022-10-05T23:19:19.315Z,13.00
2022-10-05T23:21:46.327Z,13.00
2022-10-05T23:24:13.284Z,13.10
2022-10-05T23:26:40.284Z,13.00
2022-10-05T23:29:07.274Z,13.00
2022-10-05T23:31:34.611Z,12.90
2022-10-05T23:34:01.627Z,12.90
2022-10-05T23:36:33.078Z,12.90
2022-10-05T23:39:00.430Z,12.90
2022-10-05T23:41:27.485Z,12.80
2022-10-05T23:43:55.369Z,12.80
2022-10-05T23:46:22.827Z,12.80
2022-10-05T23:48:50.484Z,12.80
2022-10-05T23:51:17.590Z,12.80
2022-10-05T23:53:44.997Z,12.80
2022-10-05T23:56:13.054Z,12.80
2022-10-05T23:58:40.941Z,12.80
